Alleyton, Texas
Current Conditions -  °F | °C
As of 1:55 PM on Friday 31 Oct 2014 (Local Time) from K66R Reporting Station
Clear Clear  
Wind Chill: 77°   Ceiling: Unl
Heat Index: 78°   Visibility: 10mi
Dew Point: 43°   Wind: 13mph
Humidity: 30%   Direction: 340°NNW
Pressure: 30.19"   Gusts: 21mph
Location:  29.71°N, 96.49°W
Report Text: K66R 311855Z AUTO 34011G18KT 10SM CLR 25/06 A3019 RMK AO2 T02490061
Loading
Personal Weather Stations






























Interactive Weather Map
Tropical Storm Tracking
New forecast layout! Learn more

10-Day Weather Forecast

Advertisements
Track Severe Weather on mobile